QFA536 YSSY-YBBN
Flight info
| Callsign | QFA536 |
|---|---|
| Flight time | 1h 18m |
| Altitude | 20000 |
| Route | KAMBA V258 PUDUT/N0348F190 V258 MATLA/N0449F350 H140 LOSKU/N0449F370 H140 IDNER H66 LAGOB |
| Aircraft | B738/M-SDE2E3FGHIRWXY/LB1 |
Departure
| Time | 2026-05-07 06:03 |
|---|---|
| Airport | Sydney Kingsford Smith International Airport (YSSY) |
Arrival
| Time | 2026-05-07 07:21 |
|---|---|
| Airport | Brisbane International Airport (YBBN) |
| Time | Latitude | Longitude | Altitude | Speed | Heading |
|---|---|---|---|---|---|
| 2026-05-07 05:10 | -33.93141 | 151.17801 | 29 ft | 0 kts | 191° |
| 2026-05-07 05:46 | -33.93130 | 151.17804 | 29 ft | 3 kts | 196° |
| 2026-05-07 05:46 | -33.93109 | 151.17808 | 29 ft | 3 kts | 167° |
| 2026-05-07 05:46 | -33.93092 | 151.17804 | 29 ft | 3 kts | 180° |
| 2026-05-07 05:47 | -33.93073 | 151.17809 | 29 ft | 3 kts | 231° |
| 2026-05-07 05:47 | -33.93066 | 151.17831 | 29 ft | 3 kts | 276° |
| 2026-05-07 05:47 | -33.93067 | 151.17837 | 29 ft | 0 kts | 280° |
| 2026-05-07 05:55 | -33.93066 | 151.17834 | 29 ft | 2 kts | 279° |
| 2026-05-07 05:56 | -33.93061 | 151.17796 | 29 ft | 8 kts | 279° |
| 2026-05-07 05:56 | -33.93038 | 151.17717 | 29 ft | 12 kts | 297° |
| 2026-05-07 05:56 | -33.93008 | 151.17601 | 29 ft | 16 kts | 277° |
| 2026-05-07 05:56 | -33.93084 | 151.17520 | 29 ft | 16 kts | 185° |
| 2026-05-07 05:57 | -33.93190 | 151.17543 | 29 ft | 15 kts | 167° |
| 2026-05-07 05:57 | -33.93292 | 151.17569 | 29 ft | 15 kts | 168° |
| 2026-05-07 05:57 | -33.93390 | 151.17592 | 29 ft | 15 kts | 173° |
| 2026-05-07 05:57 | -33.93494 | 151.17590 | 29 ft | 15 kts | 171° |
| 2026-05-07 05:58 | -33.93604 | 151.17619 | 29 ft | 17 kts | 161° |
| 2026-05-07 05:58 | -33.93714 | 151.17676 | 29 ft | 18 kts | 162° |
| 2026-05-07 05:58 | -33.93813 | 151.17705 | 29 ft | 10 kts | 165° |
| 2026-05-07 05:58 | -33.93840 | 151.17769 | 29 ft | 11 kts | 81° |
| 2026-05-07 05:59 | -33.93815 | 151.17883 | 29 ft | 15 kts | 74° |
| 2026-05-07 05:59 | -33.93787 | 151.18001 | 29 ft | 15 kts | 74° |
| 2026-05-07 05:59 | -33.93766 | 151.18089 | 29 ft | 17 kts | 74° |
| 2026-05-07 05:59 | -33.93728 | 151.18247 | 29 ft | 21 kts | 73° |
| 2026-05-07 06:00 | -33.93689 | 151.18414 | 29 ft | 20 kts | 74° |
| 2026-05-07 06:00 | -33.93651 | 151.18575 | 29 ft | 20 kts | 75° |
| 2026-05-07 06:00 | -33.93616 | 151.18716 | 29 ft | 10 kts | 72° |
| 2026-05-07 06:00 | -33.93629 | 151.18791 | 29 ft | 10 kts | 142° |
| 2026-05-07 06:01 | -33.93689 | 151.18820 | 27 ft | 0 kts | 165° |
| 2026-05-07 06:01 | -33.93695 | 151.18822 | 27 ft | 2 kts | 166° |
| 2026-05-07 06:01 | -33.93714 | 151.18827 | 26 ft | 5 kts | 166° |
| 2026-05-07 06:01 | -33.93775 | 151.18830 | 25 ft | 11 kts | 208° |
| 2026-05-07 06:02 | -33.93810 | 151.18749 | 26 ft | 12 kts | 254° |
| 2026-05-07 06:02 | -33.93869 | 151.18500 | 28 ft | 63 kts | 253° |
| 2026-05-07 06:02 | -33.94052 | 151.17729 | 28 ft | 126 kts | 254° |
| 2026-05-07 06:02 | -33.94325 | 151.16603 | 411 ft | 145 kts | 252° |
| 2026-05-07 06:03 | -33.94600 | 151.15461 | 1357 ft | 138 kts | 254° |
| 2026-05-07 06:03 | -33.94837 | 151.14350 | 2128 ft | 142 kts | 256° |
| 2026-05-07 06:03 | -33.94710 | 151.13043 | 2419 ft | 180 kts | 292° |
| 2026-05-07 06:03 | -33.93796 | 151.11812 | 2653 ft | 213 kts | 311° |
| 2026-05-07 06:04 | -33.92637 | 151.10612 | 3073 ft | 225 kts | 312° |
| 2026-05-07 06:04 | -33.91420 | 151.09397 | 3657 ft | 229 kts | 312° |
| 2026-05-07 06:04 | -33.90165 | 151.08157 | 4156 ft | 240 kts | 313° |
| 2026-05-07 06:04 | -33.88836 | 151.06837 | 4577 ft | 254 kts | 313° |
| 2026-05-07 06:05 | -33.87352 | 151.05580 | 5277 ft | 272 kts | 331° |
| 2026-05-07 06:05 | -33.85421 | 151.05325 | 6084 ft | 294 kts | 6° |
| 2026-05-07 06:05 | -33.83443 | 151.06142 | 6763 ft | 306 kts | 19° |
| 2026-05-07 06:05 | -33.81450 | 151.07099 | 7530 ft | 310 kts | 19° |
| 2026-05-07 06:06 | -33.79435 | 151.08044 | 8338 ft | 314 kts | 18° |
| 2026-05-07 06:06 | -33.77388 | 151.08970 | 9184 ft | 316 kts | 17° |
| 2026-05-07 06:06 | -33.75316 | 151.09876 | 9999 ft | 320 kts | 17° |
| 2026-05-07 06:06 | -33.73213 | 151.10771 | 10470 ft | 334 kts | 16° |
| 2026-05-07 06:07 | -33.70901 | 151.11731 | 10670 ft | 358 kts | 16° |
| 2026-05-07 06:07 | -33.68529 | 151.12702 | 11100 ft | 371 kts | 15° |
| 2026-05-07 06:07 | -33.66067 | 151.13704 | 11816 ft | 374 kts | 15° |
| 2026-05-07 06:07 | -33.63590 | 151.14707 | 12610 ft | 376 kts | 15° |
| 2026-05-07 06:08 | -33.61109 | 151.15708 | 13428 ft | 378 kts | 14° |
| 2026-05-07 06:08 | -33.58603 | 151.16715 | 14166 ft | 381 kts | 14° |
| 2026-05-07 06:08 | -33.56082 | 151.17725 | 14845 ft | 384 kts | 14° |
| 2026-05-07 06:08 | -33.53541 | 151.18742 | 15546 ft | 386 kts | 13° |
| 2026-05-07 06:09 | -33.50988 | 151.19760 | 16265 ft | 387 kts | 13° |
| 2026-05-07 06:09 | -33.48420 | 151.20782 | 16955 ft | 390 kts | 12° |
| 2026-05-07 06:09 | -33.45836 | 151.21810 | 17638 ft | 393 kts | 12° |
| 2026-05-07 06:09 | -33.43234 | 151.22845 | 18288 ft | 395 kts | 11° |
| 2026-05-07 06:10 | -33.40610 | 151.23887 | 18819 ft | 399 kts | 10° |
| 2026-05-07 06:10 | -33.37961 | 151.24938 | 19354 ft | 403 kts | 10° |
| 2026-05-07 06:10 | -33.35296 | 151.25997 | 19938 ft | 404 kts | 10° |
| 2026-05-07 06:10 | -33.32625 | 151.27059 | 20516 ft | 406 kts | 9° |
| 2026-05-07 06:11 | -33.29938 | 151.28125 | 20992 ft | 407 kts | 9° |
| 2026-05-07 06:11 | -33.27235 | 151.29196 | 21041 ft | 410 kts | 9° |
| 2026-05-07 06:11 | -33.24534 | 151.30268 | 21054 ft | 409 kts | 9° |
| 2026-05-07 06:11 | -33.21824 | 151.31343 | 20998 ft | 410 kts | 8° |
| 2026-05-07 06:12 | -33.19120 | 151.32415 | 21037 ft | 410 kts | 8° |
| 2026-05-07 06:12 | -33.16408 | 151.33488 | 21053 ft | 410 kts | 8° |
| 2026-05-07 06:12 | -33.13703 | 151.34558 | 21069 ft | 404 kts | 7° |
| 2026-05-07 06:12 | -33.11067 | 151.35608 | 21053 ft | 397 kts | 7° |
| 2026-05-07 06:13 | -33.08476 | 151.36634 | 21065 ft | 397 kts | 7° |
| 2026-05-07 06:13 | -33.05846 | 151.37666 | 21086 ft | 400 kts | 7° |
| 2026-05-07 06:13 | -33.03179 | 151.38708 | 21450 ft | 405 kts | 7° |
| 2026-05-07 06:13 | -33.00502 | 151.39758 | 21968 ft | 404 kts | 6° |
| 2026-05-07 06:14 | -32.97842 | 151.40807 | 22644 ft | 402 kts | 5° |
| 2026-05-07 06:14 | -32.95177 | 151.41856 | 23146 ft | 405 kts | 5° |
| 2026-05-07 06:14 | -32.92485 | 151.42910 | 23576 ft | 409 kts | 5° |
| 2026-05-07 06:14 | -32.89771 | 151.43972 | 23956 ft | 412 kts | 5° |
| 2026-05-07 06:15 | -32.87040 | 151.45043 | 24361 ft | 414 kts | 5° |
| 2026-05-07 06:15 | -32.84301 | 151.46117 | 24746 ft | 416 kts | 5° |
| 2026-05-07 06:15 | -32.81537 | 151.47202 | 25132 ft | 419 kts | 6° |
| 2026-05-07 06:15 | -32.78757 | 151.48292 | 25443 ft | 421 kts | 6° |
| 2026-05-07 06:16 | -32.75965 | 151.49384 | 25722 ft | 426 kts | 5° |
| 2026-05-07 06:16 | -32.73130 | 151.50491 | 26019 ft | 430 kts | 6° |
| 2026-05-07 06:16 | -32.70281 | 151.51605 | 26399 ft | 432 kts | 6° |
| 2026-05-07 06:16 | -32.67425 | 151.52724 | 26807 ft | 433 kts | 6° |
| 2026-05-07 06:17 | -32.64556 | 151.53847 | 27174 ft | 434 kts | 6° |
| 2026-05-07 06:17 | -32.61675 | 151.54971 | 27472 ft | 437 kts | 6° |
| 2026-05-07 06:17 | -32.58780 | 151.56099 | 27795 ft | 440 kts | 6° |
| 2026-05-07 06:17 | -32.55864 | 151.57236 | 28151 ft | 442 kts | 6° |
| 2026-05-07 06:18 | -32.52941 | 151.58375 | 28481 ft | 444 kts | 6° |
| 2026-05-07 06:18 | -32.49997 | 151.59521 | 28787 ft | 446 kts | 6° |
| 2026-05-07 06:18 | -32.47079 | 151.60656 | 29100 ft | 448 kts | 6° |
| 2026-05-07 06:18 | -32.44106 | 151.61813 | 29410 ft | 450 kts | 6° |
| 2026-05-07 06:19 | -32.41125 | 151.62972 | 29719 ft | 452 kts | 6° |
| 2026-05-07 06:19 | -32.38142 | 151.64134 | 30238 ft | 447 kts | 6° |
| 2026-05-07 06:19 | -32.35194 | 151.65284 | 30559 ft | 446 kts | 5° |
| 2026-05-07 06:19 | -32.32230 | 151.66432 | 30708 ft | 450 kts | 5° |
| 2026-05-07 06:20 | -32.29239 | 151.67584 | 30908 ft | 453 kts | 5° |
| 2026-05-07 06:20 | -32.26242 | 151.68741 | 31214 ft | 452 kts | 5° |
| 2026-05-07 06:20 | -32.23257 | 151.69901 | 31588 ft | 450 kts | 5° |
| 2026-05-07 06:20 | -32.20289 | 151.71052 | 31986 ft | 448 kts | 5° |
| 2026-05-07 06:21 | -32.17341 | 151.72194 | 32333 ft | 446 kts | 4° |
| 2026-05-07 06:21 | -32.14392 | 151.73332 | 32577 ft | 446 kts | 4° |
| 2026-05-07 06:21 | -32.11437 | 151.74471 | 32784 ft | 446 kts | 4° |
| 2026-05-07 06:21 | -32.08496 | 151.75607 | 33220 ft | 442 kts | 4° |
| 2026-05-07 06:22 | -32.05584 | 151.76732 | 33625 ft | 439 kts | 4° |
| 2026-05-07 06:22 | -31.99809 | 151.78951 | 34154 ft | 439 kts | 4° |
| 2026-05-07 06:22 | -31.96908 | 151.80064 | 34343 ft | 439 kts | 4° |
| 2026-05-07 06:23 | -31.94000 | 151.81180 | 34515 ft | 440 kts | 4° |
| 2026-05-07 06:23 | -31.91079 | 151.82299 | 34636 ft | 440 kts | 4° |
| 2026-05-07 06:23 | -31.88204 | 151.83407 | 35134 ft | 431 kts | 4° |
| 2026-05-07 06:23 | -31.85354 | 151.84506 | 35341 ft | 431 kts | 4° |
| 2026-05-07 06:24 | -31.79590 | 151.86702 | 35474 ft | 438 kts | 4° |
| 2026-05-07 06:24 | -31.76696 | 151.87808 | 35706 ft | 436 kts | 4° |
| 2026-05-07 06:24 | -31.73809 | 151.88913 | 35910 ft | 436 kts | 4° |
| 2026-05-07 06:25 | -31.70916 | 151.90017 | 36041 ft | 438 kts | 4° |
| 2026-05-07 06:25 | -31.68015 | 151.91124 | 36206 ft | 437 kts | 4° |
| 2026-05-07 06:25 | -31.65139 | 151.92227 | 36536 ft | 433 kts | 4° |
| 2026-05-07 06:25 | -31.62277 | 151.93321 | 36672 ft | 433 kts | 4° |
| 2026-05-07 06:26 | -31.56509 | 151.95514 | 36835 ft | 437 kts | 4° |
| 2026-05-07 06:26 | -31.53625 | 151.96614 | 37035 ft | 436 kts | 4° |
| 2026-05-07 06:26 | -31.50730 | 151.97714 | 37044 ft | 439 kts | 4° |
| 2026-05-07 06:27 | -31.44915 | 151.99924 | 37024 ft | 437 kts | 4° |
| 2026-05-07 06:27 | -31.39185 | 152.02109 | 37047 ft | 431 kts | 4° |
| 2026-05-07 06:28 | -31.33493 | 152.04270 | 37036 ft | 428 kts | 3° |
| 2026-05-07 06:28 | -31.27875 | 152.06396 | 37053 ft | 429 kts | 3° |
| 2026-05-07 06:29 | -31.22127 | 152.08556 | 37039 ft | 434 kts | 3° |
| 2026-05-07 06:29 | -31.16400 | 152.10713 | 37045 ft | 436 kts | 4° |
| 2026-05-07 06:30 | -31.10628 | 152.12894 | 37049 ft | 436 kts | 4° |
| 2026-05-07 06:30 | -31.04852 | 152.15073 | 37053 ft | 436 kts | 4° |
| 2026-05-07 06:31 | -30.99075 | 152.17249 | 37012 ft | 435 kts | 3° |
| 2026-05-07 06:31 | -30.93330 | 152.19411 | 37033 ft | 433 kts | 4° |
| 2026-05-07 06:32 | -30.87603 | 152.21559 | 37036 ft | 431 kts | 4° |
| 2026-05-07 06:32 | -30.81894 | 152.23697 | 37040 ft | 430 kts | 4° |
| 2026-05-07 06:33 | -30.76205 | 152.25827 | 37023 ft | 428 kts | 4° |
| 2026-05-07 06:33 | -30.70546 | 152.27943 | 37048 ft | 427 kts | 4° |
| 2026-05-07 06:34 | -30.64872 | 152.30058 | 37032 ft | 429 kts | 4° |
| 2026-05-07 06:34 | -30.59190 | 152.32177 | 37039 ft | 430 kts | 4° |
| 2026-05-07 06:35 | -30.53526 | 152.34288 | 36992 ft | 430 kts | 4° |
| 2026-05-07 06:35 | -30.47827 | 152.36424 | 37032 ft | 433 kts | 5° |
| 2026-05-07 06:36 | -30.42126 | 152.38852 | 37046 ft | 438 kts | 7° |
| 2026-05-07 06:36 | -30.36428 | 152.41381 | 37037 ft | 439 kts | 7° |
| 2026-05-07 06:37 | -30.30701 | 152.43895 | 37032 ft | 441 kts | 6° |
| 2026-05-07 06:37 | -30.24952 | 152.46388 | 37034 ft | 440 kts | 6° |
| 2026-05-07 06:38 | -30.19216 | 152.48864 | 37042 ft | 440 kts | 6° |
| 2026-05-07 06:38 | -30.13509 | 152.51320 | 37031 ft | 441 kts | 6° |
| 2026-05-07 06:39 | -30.07763 | 152.53790 | 37012 ft | 441 kts | 6° |
| 2026-05-07 06:39 | -30.02014 | 152.56264 | 37027 ft | 441 kts | 6° |
| 2026-05-07 06:40 | -29.96255 | 152.58735 | 37020 ft | 441 kts | 6° |
| 2026-05-07 06:40 | -29.90517 | 152.61196 | 37016 ft | 439 kts | 6° |
| 2026-05-07 06:41 | -29.84804 | 152.63644 | 36991 ft | 437 kts | 5° |
| 2026-05-07 06:41 | -29.79110 | 152.66079 | 37000 ft | 436 kts | 5° |
| 2026-05-07 06:42 | -29.73424 | 152.68505 | 37001 ft | 435 kts | 5° |
| 2026-05-07 06:42 | -29.67740 | 152.70928 | 37000 ft | 435 kts | 5° |
| 2026-05-07 06:43 | -29.62076 | 152.73345 | 36976 ft | 433 kts | 5° |
| 2026-05-07 06:43 | -29.56421 | 152.75750 | 37003 ft | 434 kts | 5° |
| 2026-05-07 06:44 | -29.50784 | 152.78144 | 37015 ft | 436 kts | 5° |
| 2026-05-07 06:44 | -29.45077 | 152.80568 | 37019 ft | 438 kts | 5° |
| 2026-05-07 06:45 | -29.40333 | 152.82584 | 36822 ft | 435 kts | 5° |
| 2026-05-07 06:45 | -29.37524 | 152.83779 | 36543 ft | 425 kts | 5° |
| 2026-05-07 06:45 | -29.34763 | 152.84956 | 36194 ft | 420 kts | 4° |
| 2026-05-07 06:46 | -29.32038 | 152.86108 | 35835 ft | 415 kts | 4° |
| 2026-05-07 06:46 | -29.29339 | 152.87246 | 35473 ft | 411 kts | 4° |
| 2026-05-07 06:46 | -29.26661 | 152.88372 | 35106 ft | 408 kts | 4° |
| 2026-05-07 06:46 | -29.24009 | 152.89487 | 34741 ft | 404 kts | 4° |
| 2026-05-07 06:47 | -29.21378 | 152.90592 | 34379 ft | 401 kts | 5° |
| 2026-05-07 06:47 | -29.18769 | 152.91688 | 34022 ft | 398 kts | 5° |
| 2026-05-07 06:47 | -29.16172 | 152.92780 | 33572 ft | 396 kts | 5° |
| 2026-05-07 06:47 | -29.13601 | 152.93861 | 33212 ft | 392 kts | 5° |
| 2026-05-07 06:48 | -29.11054 | 152.94933 | 32846 ft | 388 kts | 4° |
| 2026-05-07 06:48 | -29.08526 | 152.95995 | 32492 ft | 385 kts | 4° |
| 2026-05-07 06:48 | -29.06026 | 152.97046 | 32148 ft | 381 kts | 4° |
| 2026-05-07 06:48 | -29.03547 | 152.98087 | 31809 ft | 378 kts | 4° |
| 2026-05-07 06:49 | -29.01091 | 152.99116 | 31470 ft | 375 kts | 4° |
| 2026-05-07 06:49 | -28.98652 | 153.00137 | 31135 ft | 371 kts | 4° |
| 2026-05-07 06:49 | -28.96241 | 153.01147 | 30806 ft | 368 kts | 4° |
| 2026-05-07 06:49 | -28.93838 | 153.02152 | 30478 ft | 365 kts | 4° |
| 2026-05-07 06:50 | -28.91466 | 153.03144 | 30113 ft | 363 kts | 4° |
| 2026-05-07 06:50 | -28.89104 | 153.04133 | 29758 ft | 360 kts | 4° |
| 2026-05-07 06:50 | -28.86797 | 153.05042 | 29433 ft | 348 kts | 359° |
| 2026-05-07 06:50 | -28.84491 | 153.05700 | 29123 ft | 338 kts | 357° |
| 2026-05-07 06:51 | -28.82211 | 153.06281 | 28774 ft | 333 kts | 356° |
| 2026-05-07 06:51 | -28.79955 | 153.06840 | 28444 ft | 330 kts | 356° |
| 2026-05-07 06:51 | -28.77718 | 153.07396 | 28110 ft | 327 kts | 357° |
| 2026-05-07 06:51 | -28.75499 | 153.07950 | 27789 ft | 326 kts | 357° |
| 2026-05-07 06:52 | -28.73287 | 153.08508 | 27469 ft | 326 kts | 357° |
| 2026-05-07 06:52 | -28.71051 | 153.09071 | 27162 ft | 333 kts | 358° |
| 2026-05-07 06:52 | -28.68734 | 153.09649 | 26853 ft | 346 kts | 359° |
| 2026-05-07 06:52 | -28.66363 | 153.10251 | 26456 ft | 350 kts | 359° |
| 2026-05-07 06:53 | -28.63995 | 153.10866 | 26098 ft | 348 kts | 360° |
| 2026-05-07 06:53 | -28.61644 | 153.11480 | 25770 ft | 345 kts | 0° |
| 2026-05-07 06:53 | -28.59309 | 153.12089 | 25437 ft | 343 kts | 0° |
| 2026-05-07 06:53 | -28.56989 | 153.12691 | 25094 ft | 341 kts | 0° |
| 2026-05-07 06:54 | -28.54683 | 153.13289 | 24756 ft | 339 kts | 0° |
| 2026-05-07 06:54 | -28.52416 | 153.13874 | 24448 ft | 338 kts | 0° |
| 2026-05-07 06:54 | -28.50122 | 153.14464 | 24092 ft | 337 kts | 1° |
| 2026-05-07 06:54 | -28.47832 | 153.15053 | 23750 ft | 338 kts | 0° |
| 2026-05-07 06:55 | -28.45523 | 153.15647 | 23325 ft | 340 kts | 1° |
| 2026-05-07 06:55 | -28.43227 | 153.16236 | 22975 ft | 336 kts | 1° |
| 2026-05-07 06:55 | -28.40951 | 153.16823 | 22603 ft | 334 kts | 2° |
| 2026-05-07 06:55 | -28.38695 | 153.17405 | 22282 ft | 331 kts | 2° |
| 2026-05-07 06:56 | -28.36454 | 153.17982 | 21953 ft | 329 kts | 2° |
| 2026-05-07 06:56 | -28.34226 | 153.18554 | 21631 ft | 327 kts | 2° |
| 2026-05-07 06:56 | -28.32014 | 153.19122 | 21291 ft | 325 kts | 2° |
| 2026-05-07 06:56 | -28.29807 | 153.19688 | 20959 ft | 325 kts | 2° |
| 2026-05-07 06:57 | -28.27608 | 153.20250 | 20636 ft | 323 kts | 2° |
| 2026-05-07 06:57 | -28.25419 | 153.20811 | 20296 ft | 322 kts | 3° |
| 2026-05-07 06:57 | -28.23238 | 153.21369 | 19986 ft | 321 kts | 3° |
| 2026-05-07 06:57 | -28.21065 | 153.21926 | 19646 ft | 319 kts | 3° |
| 2026-05-07 06:58 | -28.18911 | 153.22478 | 19334 ft | 318 kts | 3° |
| 2026-05-07 06:58 | -28.16748 | 153.23030 | 18966 ft | 319 kts | 4° |
| 2026-05-07 06:58 | -28.14614 | 153.23576 | 18677 ft | 318 kts | 4° |
| 2026-05-07 06:58 | -28.12453 | 153.24127 | 18344 ft | 318 kts | 4° |
| 2026-05-07 06:59 | -28.10294 | 153.24679 | 18031 ft | 316 kts | 4° |
| 2026-05-07 06:59 | -28.08157 | 153.25226 | 17675 ft | 314 kts | 5° |
| 2026-05-07 06:59 | -28.06024 | 153.25771 | 17352 ft | 313 kts | 5° |
| 2026-05-07 06:59 | -28.03910 | 153.26312 | 17030 ft | 311 kts | 5° |
| 2026-05-07 07:00 | -28.01809 | 153.26847 | 16709 ft | 309 kts | 5° |
| 2026-05-07 07:00 | -27.99717 | 153.27381 | 16396 ft | 307 kts | 5° |
| 2026-05-07 07:00 | -27.97633 | 153.27912 | 16089 ft | 306 kts | 5° |
| 2026-05-07 07:00 | -27.95584 | 153.28435 | 15788 ft | 305 kts | 5° |
| 2026-05-07 07:01 | -27.93515 | 153.28961 | 15466 ft | 304 kts | 5° |
| 2026-05-07 07:01 | -27.91426 | 153.29493 | 15149 ft | 303 kts | 6° |
| 2026-05-07 07:01 | -27.89395 | 153.30011 | 14851 ft | 303 kts | 6° |
| 2026-05-07 07:01 | -27.87333 | 153.30536 | 14526 ft | 304 kts | 6° |
| 2026-05-07 07:02 | -27.85238 | 153.31070 | 14219 ft | 304 kts | 6° |
| 2026-05-07 07:02 | -27.83181 | 153.31594 | 13896 ft | 303 kts | 6° |
| 2026-05-07 07:02 | -27.81152 | 153.32112 | 13574 ft | 302 kts | 7° |
| 2026-05-07 07:02 | -27.79106 | 153.32633 | 13244 ft | 300 kts | 6° |
| 2026-05-07 07:03 | -27.77074 | 153.33151 | 12936 ft | 299 kts | 6° |
| 2026-05-07 07:03 | -27.75038 | 153.33665 | 12492 ft | 301 kts | 6° |
| 2026-05-07 07:03 | -27.72987 | 153.34185 | 12152 ft | 301 kts | 7° |
| 2026-05-07 07:03 | -27.70950 | 153.34708 | 11850 ft | 300 kts | 7° |
| 2026-05-07 07:04 | -27.68929 | 153.35232 | 11604 ft | 297 kts | 7° |
| 2026-05-07 07:04 | -27.66928 | 153.35754 | 11342 ft | 294 kts | 7° |
| 2026-05-07 07:04 | -27.64939 | 153.36272 | 11110 ft | 291 kts | 7° |
| 2026-05-07 07:04 | -27.62997 | 153.36910 | 10841 ft | 295 kts | 18° |
| 2026-05-07 07:05 | -27.61162 | 153.37943 | 10621 ft | 293 kts | 22° |
| 2026-05-07 07:05 | -27.59386 | 153.39049 | 10393 ft | 291 kts | 24° |
| 2026-05-07 07:05 | -27.57665 | 153.40222 | 10175 ft | 287 kts | 26° |
| 2026-05-07 07:05 | -27.55991 | 153.41401 | 10082 ft | 279 kts | 26° |
| 2026-05-07 07:06 | -27.54334 | 153.42573 | 9724 ft | 287 kts | 26° |
| 2026-05-07 07:06 | -27.52624 | 153.43778 | 9330 ft | 291 kts | 26° |
| 2026-05-07 07:06 | -27.50898 | 153.44983 | 8917 ft | 293 kts | 26° |
| 2026-05-07 07:06 | -27.49154 | 153.46189 | 8523 ft | 295 kts | 26° |
| 2026-05-07 07:07 | -27.47394 | 153.47397 | 8135 ft | 298 kts | 26° |
| 2026-05-07 07:07 | -27.45616 | 153.48605 | 7738 ft | 299 kts | 25° |
| 2026-05-07 07:07 | -27.43765 | 153.49659 | 7351 ft | 298 kts | 19° |
| 2026-05-07 07:07 | -27.41860 | 153.50594 | 6968 ft | 299 kts | 19° |
| 2026-05-07 07:08 | -27.39912 | 153.51418 | 6591 ft | 298 kts | 12° |
| 2026-05-07 07:08 | -27.37891 | 153.51884 | 6202 ft | 296 kts | 3° |
| 2026-05-07 07:08 | -27.35868 | 153.52116 | 5811 ft | 295 kts | 358° |
| 2026-05-07 07:08 | -27.33818 | 153.52135 | 5415 ft | 294 kts | 355° |
| 2026-05-07 07:09 | -27.31763 | 153.52096 | 5018 ft | 296 kts | 354° |
| 2026-05-07 07:09 | -27.29708 | 153.52053 | 4656 ft | 295 kts | 354° |
| 2026-05-07 07:09 | -27.27675 | 153.52011 | 4399 ft | 290 kts | 354° |
| 2026-05-07 07:09 | -27.25671 | 153.51971 | 4152 ft | 285 kts | 352° |
| 2026-05-07 07:10 | -27.23759 | 153.51635 | 4032 ft | 272 kts | 341° |
| 2026-05-07 07:10 | -27.22035 | 153.50966 | 4003 ft | 255 kts | 329° |
| 2026-05-07 07:10 | -27.20434 | 153.50129 | 4000 ft | 252 kts | 328° |
| 2026-05-07 07:10 | -27.18881 | 153.49292 | 3986 ft | 241 kts | 328° |
| 2026-05-07 07:11 | -27.17541 | 153.48307 | 3989 ft | 220 kts | 308° |
| 2026-05-07 07:11 | -27.16529 | 153.47071 | 4001 ft | 213 kts | 307° |
| 2026-05-07 07:11 | -27.15522 | 153.45858 | 3999 ft | 211 kts | 307° |
| 2026-05-07 07:11 | -27.14522 | 153.44647 | 3991 ft | 213 kts | 307° |
| 2026-05-07 07:12 | -27.13522 | 153.43403 | 4010 ft | 216 kts | 307° |
| 2026-05-07 07:12 | -27.12529 | 153.42123 | 4017 ft | 217 kts | 305° |
| 2026-05-07 07:12 | -27.11580 | 153.40812 | 4005 ft | 215 kts | 304° |
| 2026-05-07 07:12 | -27.10721 | 153.39463 | 3987 ft | 208 kts | 286° |
| 2026-05-07 07:13 | -27.10741 | 153.37933 | 4016 ft | 201 kts | 243° |
| 2026-05-07 07:13 | -27.11470 | 153.36556 | 4012 ft | 209 kts | 241° |
| 2026-05-07 07:13 | -27.12184 | 153.35082 | 4025 ft | 219 kts | 243° |
| 2026-05-07 07:13 | -27.12861 | 153.33569 | 4017 ft | 219 kts | 244° |
| 2026-05-07 07:14 | -27.13510 | 153.32028 | 4013 ft | 215 kts | 246° |
| 2026-05-07 07:14 | -27.14118 | 153.30531 | 3994 ft | 208 kts | 246° |
| 2026-05-07 07:14 | -27.14707 | 153.29060 | 3991 ft | 205 kts | 246° |
| 2026-05-07 07:14 | -27.15286 | 153.27599 | 4004 ft | 205 kts | 246° |
| 2026-05-07 07:15 | -27.15916 | 153.26161 | 3989 ft | 205 kts | 234° |
| 2026-05-07 07:15 | -27.17053 | 153.25284 | 4029 ft | 198 kts | 207° |
| 2026-05-07 07:15 | -27.18220 | 153.24586 | 3992 ft | 184 kts | 218° |
| 2026-05-07 07:15 | -27.19338 | 153.23842 | 3869 ft | 191 kts | 212° |
| 2026-05-07 07:16 | -27.20525 | 153.23162 | 3641 ft | 190 kts | 211° |
| 2026-05-07 07:16 | -27.21697 | 153.22499 | 3398 ft | 187 kts | 212° |
| 2026-05-07 07:16 | -27.22838 | 153.21846 | 3167 ft | 182 kts | 212° |
| 2026-05-07 07:16 | -27.23949 | 153.21207 | 2935 ft | 177 kts | 211° |
| 2026-05-07 07:17 | -27.25039 | 153.20580 | 2686 ft | 174 kts | 211° |
| 2026-05-07 07:17 | -27.26103 | 153.19967 | 2457 ft | 169 kts | 211° |
| 2026-05-07 07:17 | -27.27130 | 153.19377 | 2235 ft | 163 kts | 211° |
| 2026-05-07 07:17 | -27.28110 | 153.18803 | 1977 ft | 154 kts | 212° |
| 2026-05-07 07:18 | -27.29036 | 153.18247 | 1705 ft | 148 kts | 212° |
| 2026-05-07 07:18 | -27.29946 | 153.17729 | 1638 ft | 148 kts | 210° |
| 2026-05-07 07:18 | -27.30859 | 153.17223 | 1562 ft | 145 kts | 211° |
| 2026-05-07 07:18 | -27.31759 | 153.16717 | 1374 ft | 145 kts | 211° |
| 2026-05-07 07:19 | -27.32667 | 153.16195 | 1055 ft | 148 kts | 211° |
| 2026-05-07 07:19 | -27.33568 | 153.15652 | 790 ft | 145 kts | 210° |
| 2026-05-07 07:19 | -27.34486 | 153.15162 | 661 ft | 148 kts | 210° |
| 2026-05-07 07:19 | -27.35391 | 153.14627 | 530 ft | 147 kts | 211° |
| 2026-05-07 07:20 | -27.36325 | 153.14093 | 315 ft | 152 kts | 211° |
| 2026-05-07 07:20 | -27.37257 | 153.13563 | 112 ft | 149 kts | 211° |
| 2026-05-07 07:20 | -27.38147 | 153.13034 | 21 ft | 135 kts | 206° |
| 2026-05-07 07:20 | -27.38853 | 153.12639 | 20 ft | 91 kts | 207° |
| 2026-05-07 07:21 | -27.39285 | 153.12391 | 18 ft | 48 kts | 207° |
| 2026-05-07 07:21 | -27.39461 | 153.12291 | 21 ft | 21 kts | 206° |
| 2026-05-07 07:21 | -27.39561 | 153.12223 | 20 ft | 14 kts | 227° |
| 2026-05-07 07:21 | -27.39578 | 153.12125 | 20 ft | 13 kts | 284° |
| 2026-05-07 07:22 | -27.39544 | 153.12033 | 22 ft | 13 kts | 297° |
| 2026-05-07 07:22 | -27.39499 | 153.11950 | 21 ft | 12 kts | 316° |
| 2026-05-07 07:22 | -27.39419 | 153.11947 | 21 ft | 13 kts | 25° |
| 2026-05-07 07:22 | -27.39332 | 153.11999 | 22 ft | 15 kts | 25° |
| 2026-05-07 07:23 | -27.39233 | 153.12057 | 22 ft | 17 kts | 26° |
| 2026-05-07 07:23 | -27.39121 | 153.12119 | 20 ft | 19 kts | 25° |
| 2026-05-07 07:23 | -27.39001 | 153.12185 | 20 ft | 19 kts | 26° |
| 2026-05-07 07:23 | -27.38881 | 153.12252 | 20 ft | 19 kts | 23° |
| 2026-05-07 07:24 | -27.38765 | 153.12322 | 20 ft | 19 kts | 27° |
| 2026-05-07 07:24 | -27.38691 | 153.12340 | 20 ft | 9 kts | 328° |
| 2026-05-07 07:24 | -27.38633 | 153.12316 | 20 ft | 10 kts | 21° |
| 2026-05-07 07:24 | -27.38563 | 153.12352 | 20 ft | 12 kts | 21° |
| 2026-05-07 07:25 | -27.38501 | 153.12219 | 21 ft | 12 kts | 228° |
| 2026-05-07 07:25 | -27.38538 | 153.12177 | 22 ft | 5 kts | 237° |
| 2026-05-07 07:25 | -27.38538 | 153.12141 | 20 ft | 5 kts | 287° |
| 2026-05-07 07:26 | -27.38533 | 153.12126 | 20 ft | 0 kts | 289° |